createdAt,value
2023-04-09T00:04:03.727Z,99268.31
2023-04-09T00:09:06.482Z,99269.16
2023-04-09T00:14:09.548Z,99263.03
2023-04-09T00:19:14.503Z,99259.59
2023-04-09T00:24:17.622Z,99259.59
2023-04-09T00:29:20.533Z,99250.69
2023-04-09T00:34:24.940Z,99242.81
2023-04-09T00:39:27.709Z,99249.25
2023-04-09T00:44:30.748Z,99250.28
2023-04-09T00:49:34.992Z,99243.00
2023-04-09T00:54:37.970Z,99244.84
2023-04-09T00:59:40.977Z,99243.00
2023-04-09T01:04:46.216Z,99245.84
2023-04-09T01:09:55.456Z,99249.38
2023-04-09T01:15:05.031Z,99238.75
2023-04-09T01:20:14.742Z,99245.09
2023-04-09T01:25:36.501Z,99237.41
2023-04-09T01:30:44.480Z,99233.91
2023-04-09T01:35:49.381Z,99247.19
2023-04-09T01:40:54.020Z,99244.59
2023-04-09T01:46:00.405Z,99246.50
2023-04-09T01:51:03.568Z,99246.59
2023-04-09T01:56:06.712Z,99246.78
2023-04-09T02:01:15.642Z,99247.81
2023-04-09T02:06:26.674Z,99252.56
2023-04-09T02:11:34.692Z,99255.28
2023-04-09T02:16:40.072Z,99251.28
2023-04-09T02:21:42.810Z,99245.31
2023-04-09T02:26:45.747Z,99246.44
2023-04-09T02:31:50.150Z,99245.59
2023-04-09T02:36:53.235Z,99251.91
2023-04-09T02:41:56.307Z,99244.25
2023-04-09T02:47:00.434Z,99241.88
2023-04-09T02:52:03.591Z,99239.22
2023-04-09T02:57:07.090Z,99233.22
2023-04-09T03:02:11.342Z,99238.81
2023-04-09T03:07:14.228Z,99230.38
2023-04-09T03:12:16.915Z,99237.63
2023-04-09T03:17:21.017Z,99228.16
2023-04-09T03:22:23.968Z,99222.38
2023-04-09T03:27:28.944Z,99227.94
2023-04-09T03:32:34.917Z,99221.28
2023-04-09T03:37:37.997Z,99216.69
2023-04-09T03:42:44.328Z,99212.09
2023-04-09T03:47:51.215Z,99217.03
2023-04-09T03:52:58.589Z,99211.31
2023-04-09T03:58:01.820Z,99216.63
2023-04-09T04:03:09.875Z,99215.38
2023-04-09T04:08:30.177Z,99209.06
2023-04-09T04:13:36.377Z,99215.53
2023-04-09T04:18:44.243Z,99211.06
2023-04-09T04:23:48.229Z,99215.13
2023-04-09T04:28:58.554Z,99221.69
2023-04-09T04:34:21.043Z,99222.47
2023-04-09T04:39:32.060Z,99217.69
2023-04-09T04:44:39.476Z,99226.56
2023-04-09T04:49:51.077Z,99225.78
2023-04-09T04:54:54.802Z,99224.56
2023-04-09T04:59:59.804Z,99225.56
2023-04-09T05:05:05.496Z,99228.66
2023-04-09T05:10:13.984Z,99225.81
2023-04-09T05:15:18.910Z,99231.16
2023-04-09T05:20:23.614Z,99224.69
2023-04-09T05:25:39.818Z,99224.69
2023-04-09T05:30:47.919Z,99227.75
2023-04-09T05:35:53.440Z,99228.44
2023-04-09T05:40:56.689Z,99229.81
2023-04-09T05:46:00.130Z,99230.84
2023-04-09T05:51:04.760Z,99223.34
2023-04-09T05:56:15.376Z,99235.16
2023-04-09T06:01:26.222Z,99238.66
2023-04-09T06:06:30.474Z,99240.38
2023-04-09T06:11:33.747Z,99234.38
2023-04-09T06:16:36.618Z,99244.06
2023-04-09T06:21:41.747Z,99244.59
2023-04-09T06:26:44.600Z,99248.56
2023-04-09T06:31:47.500Z,99240.34
2023-04-09T06:36:51.859Z,99246.41
2023-04-09T06:41:54.702Z,99245.88
2023-04-09T06:47:08.731Z,99255.44
2023-04-09T06:52:13.088Z,99255.69
2023-04-09T06:57:16.047Z,99253.88
2023-04-09T07:02:21.094Z,99248.66
2023-04-09T07:07:25.837Z,99243.97
2023-04-09T07:12:28.852Z,99249.97
2023-04-09T07:17:32.564Z,99255.78
2023-04-09T07:22:37.307Z,99258.63
2023-04-09T07:27:40.204Z,99256.78
2023-04-09T07:32:43.025Z,99261.44
2023-04-09T07:37:47.279Z,99260.69
2023-04-09T07:42:50.698Z,99275.47
2023-04-09T07:47:53.538Z,99262.22
2023-04-09T07:52:57.700Z,99265.88
2023-04-09T07:58:00.731Z,99263.63
2023-04-09T08:03:03.905Z,99264.41
2023-04-09T08:08:08.783Z,99274.34
2023-04-09T08:13:12.140Z,99263.25
2023-04-09T08:18:14.947Z,99267.06
2023-04-09T08:23:19.958Z,99275.78
2023-04-09T08:28:23.906Z,99276.53
2023-04-09T08:33:26.916Z,99272.25
2023-04-09T08:38:31.843Z,99272.50
2023-04-09T08:43:56.477Z,99274.81
2023-04-09T08:48:59.098Z,99271.59
2023-04-09T08:54:04.678Z,99267.97
2023-04-09T08:59:07.951Z,99268.75
2023-04-09T09:04:12.323Z,99265.53
2023-04-09T09:09:18.933Z,99266.03
2023-04-09T09:14:21.929Z,99273.47
2023-04-09T09:19:31.334Z,99270.41
2023-04-09T09:24:35.603Z,99269.44
2023-04-09T09:29:42.640Z,99270.97
2023-04-09T09:34:59.559Z,99270.94
2023-04-09T09:40:04.203Z,99265.19
2023-04-09T09:45:19.252Z,99258.84
2023-04-09T09:50:26.461Z,99250.22
2023-04-09T09:55:31.901Z,99250.78
2023-04-09T10:00:38.034Z,99256.97
2023-04-09T10:05:41.899Z,99242.44
2023-04-09T10:10:46.858Z,99244.06
2023-04-09T10:15:50.647Z,99239.38
2023-04-09T10:21:03.828Z,99234.47
2023-04-09T10:26:08.225Z,99234.00
2023-04-09T10:31:13.922Z,99229.56
2023-04-09T10:36:22.319Z,99222.31
2023-04-09T10:41:30.723Z,99221.25
2023-04-09T10:46:36.527Z,99223.66
2023-04-09T10:51:39.620Z,99229.69
2023-04-09T10:57:11.290Z,99219.31
2023-04-09T11:02:49.114Z,99227.03
2023-04-09T11:07:56.633Z,99225.44
2023-04-09T11:13:01.102Z,99231.59
2023-04-09T11:18:06.785Z,99221.44
2023-04-09T11:23:09.676Z,99221.72
2023-04-09T11:28:15.272Z,99222.34
2023-04-09T11:33:20.054Z,99216.94
2023-04-09T11:38:23.509Z,99226.50
2023-04-09T11:43:28.169Z,99220.38
2023-04-09T11:48:31.585Z,99219.66
2023-04-09T11:53:34.873Z,99224.09
2023-04-09T11:58:39.078Z,99218.25
2023-04-09T12:03:42.252Z,99210.53
2023-04-09T12:08:45.373Z,99203.06
2023-04-09T12:13:49.503Z,99204.25
2023-04-09T12:18:55.802Z,99204.00
2023-04-09T12:23:58.679Z,99202.56
2023-04-09T12:29:03.047Z,99204.94
2023-04-09T12:34:05.874Z,99197.28
2023-04-09T12:39:10.493Z,99195.41
2023-04-09T12:44:14.640Z,99192.41
2023-04-09T12:49:17.600Z,99194.16
2023-04-09T12:54:20.531Z,99186.66
2023-04-09T12:59:24.765Z,99194.28
2023-04-09T13:04:27.655Z,99187.69
2023-04-09T13:09:30.592Z,99194.63
2023-04-09T13:14:34.712Z,99185.41
2023-04-09T13:19:38.163Z,99186.28
2023-04-09T13:24:43.148Z,99184.63
2023-04-09T13:29:48.439Z,99185.06
2023-04-09T13:34:54.141Z,99175.34
2023-04-09T13:39:57.017Z,99172.53
2023-04-09T13:45:02.253Z,99154.84
2023-04-09T13:50:06.168Z,99159.81
2023-04-09T13:55:10.384Z,99157.38
2023-04-09T14:00:16.197Z,99154.66
2023-04-09T14:05:19.003Z,99154.13
2023-04-09T14:10:21.769Z,99147.59
2023-04-09T14:15:26.476Z,99153.03
2023-04-09T14:20:29.324Z,99150.56
2023-04-09T14:25:32.123Z,99146.63
2023-04-09T14:30:36.280Z,99144.53
2023-04-09T14:35:39.004Z,99147.00
2023-04-09T14:40:42.077Z,99141.88
2023-04-09T14:45:46.310Z,99131.00
2023-04-09T14:50:51.295Z,99132.06
2023-04-09T14:55:54.062Z,99130.91
2023-04-09T15:00:58.331Z,99132.09
2023-04-09T15:06:01.016Z,99129.50
2023-04-09T15:11:03.786Z,99134.00
2023-04-09T15:16:10.268Z,99138.94
2023-04-09T15:21:13.077Z,99133.22
2023-04-09T15:26:15.913Z,99134.31
2023-04-09T15:31:20.301Z,99128.34
2023-04-09T15:36:23.856Z,99122.06
2023-04-09T15:41:27.241Z,99120.38
2023-04-09T15:46:31.768Z,99127.06
2023-04-09T15:51:34.640Z,99119.75
2023-04-09T15:56:40.276Z,99106.09
2023-04-09T16:01:44.621Z,99112.47
2023-04-09T16:06:48.084Z,99102.75
2023-04-09T16:11:50.954Z,99105.88
2023-04-09T16:16:55.137Z,99102.19
2023-04-09T16:21:58.635Z,99098.53
2023-04-09T16:27:01.506Z,99094.19
2023-04-09T16:32:06.139Z,99094.25
2023-04-09T16:37:09.320Z,99092.09
2023-04-09T16:42:12.236Z,99102.41
2023-04-09T16:47:16.288Z,99105.94
2023-04-09T16:52:19.088Z,99101.50
2023-04-09T16:57:23.036Z,99101.28
2023-04-09T17:02:27.643Z,99097.44
2023-04-09T17:07:30.924Z,99092.44
2023-04-09T17:12:33.796Z,99093.41
2023-04-09T17:17:38.165Z,99095.66
2023-04-09T17:22:42.314Z,99091.31
2023-04-09T17:27:45.394Z,99096.63
2023-04-09T17:32:51.123Z,99088.63
2023-04-09T17:37:53.963Z,99084.25
2023-04-09T17:42:57.792Z,99085.56
2023-04-09T17:48:03.442Z,99093.88
2023-04-09T17:53:08.700Z,99078.69
2023-04-09T17:58:12.407Z,99081.97
2023-04-09T18:03:17.905Z,99078.78
2023-04-09T18:08:20.784Z,99078.44
2023-04-09T18:13:24.048Z,99074.91
2023-04-09T18:18:29.470Z,99080.34
2023-04-09T18:23:32.189Z,99079.56
2023-04-09T18:28:35.588Z,99079.09
2023-04-09T18:33:39.757Z,99096.25
2023-04-09T18:38:42.565Z,99095.44
2023-04-09T18:43:45.853Z,99096.63
2023-04-09T18:48:50.134Z,99095.59
2023-04-09T18:53:54.745Z,99106.75
2023-04-09T18:58:57.496Z,99105.47
2023-04-09T19:04:01.796Z,99104.16
2023-04-09T19:09:05.013Z,99102.03
2023-04-09T19:14:07.786Z,99105.34
2023-04-09T19:19:11.951Z,99113.91
2023-04-09T19:24:14.661Z,99104.69
2023-04-09T19:29:17.377Z,99110.91
2023-04-09T19:34:22.639Z,99109.53
2023-04-09T19:39:25.788Z,99106.78
2023-04-09T19:44:29.809Z,99121.19
2023-04-09T19:49:33.938Z,99112.06
2023-04-09T19:54:37.530Z,99103.53
2023-04-09T20:19:50.611Z,99109.63
2023-04-09T20:24:53.346Z,99110.41
2023-04-09T20:29:56.533Z,99110.66
2023-04-09T20:35:01.498Z,99103.84
2023-04-09T20:40:05.658Z,99106.50
2023-04-09T20:45:09.736Z,99106.75
2023-04-09T20:50:14.555Z,99099.06
2023-04-09T20:55:18.413Z,99096.59
2023-04-09T21:00:22.499Z,99093.50
2023-04-09T21:05:27.664Z,99093.09
2023-04-09T21:10:30.439Z,99099.06
2023-04-09T21:15:33.174Z,99089.50
2023-04-09T21:20:37.725Z,99091.19
2023-04-09T21:25:40.989Z,99097.47
2023-04-09T21:30:43.773Z,99094.44
2023-04-09T21:35:47.937Z,99098.69
2023-04-09T21:40:50.620Z,99098.09
2023-04-09T21:45:53.400Z,99091.44
2023-04-09T21:50:58.195Z,99081.88
2023-04-09T21:56:03.480Z,99069.75
2023-04-09T22:01:15.865Z,99070.31
2023-04-09T22:06:23.273Z,99073.59
2023-04-09T22:11:28.154Z,99067.94
2023-04-09T22:16:31.684Z,99075.47
2023-04-09T22:21:35.874Z,99078.41
2023-04-09T22:26:40.872Z,99076.09
2023-04-09T22:31:43.631Z,99078.25
2023-04-09T22:36:47.817Z,99072.81
2023-04-09T22:41:50.541Z,99069.78
2023-04-09T22:46:53.438Z,99072.16
2023-04-09T22:51:57.655Z,99077.06
2023-04-09T22:57:01.185Z,99089.34
2023-04-09T23:02:04.041Z,99082.50
2023-04-09T23:07:09.283Z,99081.41
2023-04-09T23:12:12.422Z,99082.41
2023-04-09T23:17:15.316Z,99090.59
2023-04-09T23:22:19.481Z,99081.97
2023-04-09T23:27:28.159Z,99084.00
2023-04-09T23:32:31.112Z,99086.63
2023-04-09T23:37:35.325Z,99085.78
2023-04-09T23:42:38.112Z,99090.78
2023-04-09T23:47:41.362Z,99086.84
2023-04-09T23:52:49.227Z,99091.50
2023-04-09T23:57:52.050Z,99090.28
